Time,TemperatureF,DewpointF,PressureIn,WindDirection,WindDirectionDegrees,WindSpeedMPH,WindSpeedGustMPH,Humidity,HourlyPrecipIn,Conditions,Clouds,dailyrainin,SolarRadiationWatts/m^2,SoftwareType,DateUTC
2013-02-12 00:12:00,38.4,37.0,29.68,NW,313,1.0,1.0,96,0.00,,,0.00,0,weatherlink.com 1.10,2013-02-12 05:12:00,
2013-02-12 00:27:00,38.4,37.0,29.68,NW,317,1.0,3.0,96,0.00,,,0.00,0,weatherlink.com 1.10,2013-02-12 05:27:00,
2013-02-12 00:42:00,39.2,38.0,29.67,WSW,245,1.0,3.0,96,0.00,,,0.00,0,weatherlink.com 1.10,2013-02-12 05:42:00,
2013-02-12 00:58:00,39.2,38.0,29.68,West,278,5.0,7.0,96,0.00,,,0.00,0,weatherlink.com 1.10,2013-02-12 05:58:00,
2013-02-12 01:13:00,39.7,38.0,29.67,West,277,1.0,6.0,95,0.00,,,0.00,0,weatherlink.com 1.10,2013-02-12 06:13:00,
2013-02-12 01:28:00,39.5,38.0,29.67,West,267,2.0,5.0,94,0.00,,,0.00,0,weatherlink.com 1.10,2013-02-12 06:28:00,
2013-02-12 01:43:00,39.6,37.0,29.67,West,273,5.0,9.0,91,0.00,,,0.00,0,weatherlink.com 1.10,2013-02-12 06:43:00,
2013-02-12 01:58:00,39.8,37.0,29.68,WNW,301,7.0,13.0,89,0.00,,,0.00,0,weatherlink.com 1.10,2013-02-12 06:58:00,
2013-02-12 02:13:00,40.0,36.0,29.68,West,274,6.0,17.0,84,0.00,,,0.00,0,weatherlink.com 1.10,2013-02-12 07:13:00,
2013-02-12 02:28:00,39.6,34.0,29.68,WSW,244,12.0,19.0,80,0.00,,,0.00,0,weatherlink.com 1.10,2013-02-12 07:28:00,
2013-02-12 02:43:00,39.2,33.0,29.67,WNW,298,6.0,22.0,77,0.00,,,0.00,0,weatherlink.com 1.10,2013-02-12 07:43:00,
2013-02-12 02:58:00,38.9,32.0,29.67,West,279,5.0,22.0,75,0.00,,,0.00,0,weatherlink.com 1.10,2013-02-12 07:58:00,
2013-02-12 03:13:00,38.9,31.0,29.68,WNW,292,11.0,20.0,74,0.00,,,0.00,0,weatherlink.com 1.10,2013-02-12 08:13:00,
2013-02-12 03:28:00,38.7,31.0,29.69,WNW,285,5.0,19.0,74,0.00,,,0.00,0,weatherlink.com 1.10,2013-02-12 08:28:00,
2013-02-12 03:43:00,38.3,31.0,29.69,West,277,9.0,15.0,75,0.00,,,0.00,0,weatherlink.com 1.10,2013-02-12 08:43:00,
2013-02-12 03:58:00,38.1,31.0,29.69,WNW,290,6.0,13.0,75,0.00,,,0.00,0,weatherlink.com 1.10,2013-02-12 08:58:00,
2013-02-12 04:13:00,38.0,31.0,29.70,WNW,284,8.0,12.0,75,0.00,,,0.00,0,weatherlink.com 1.10,2013-02-12 09:13:00,
2013-02-12 04:28:00,37.9,30.0,29.70,WNW,292,8.0,15.0,74,0.00,,,0.00,0,weatherlink.com 1.10,2013-02-12 09:28:00,
2013-02-12 04:43:00,37.6,30.0,29.70,WNW,301,4.0,12.0,74,0.00,,,0.00,0,weatherlink.com 1.10,2013-02-12 09:43:00,
2013-02-12 04:58:00,37.3,30.0,29.70,WSW,250,8.0,11.0,75,0.00,,,0.00,0,weatherlink.com 1.10,2013-02-12 09:58:00,
2013-02-12 05:13:00,37.2,30.0,29.71,West,271,6.0,11.0,75,0.00,,,0.00,0,weatherlink.com 1.10,2013-02-12 10:13:00,
2013-02-12 05:28:00,36.9,30.0,29.71,NW,309,1.0,9.0,75,0.00,,,0.00,0,weatherlink.com 1.10,2013-02-12 10:28:00,
2013-02-12 05:43:00,36.7,30.0,29.72,NW,309,2.0,10.0,76,0.00,,,0.00,0,weatherlink.com 1.10,2013-02-12 10:43:00,
2013-02-12 05:58:00,36.6,30.0,29.72,WNW,298,4.0,7.0,76,0.00,,,0.00,0,weatherlink.com 1.10,2013-02-12 10:58:00,
2013-02-12 06:13:00,36.2,30.0,29.73,WNW,285,4.0,6.0,77,0.00,,,0.00,0,weatherlink.com 1.10,2013-02-12 11:13:00,
2013-02-12 06:28:00,36.0,29.0,29.73,West,265,3.0,8.0,77,0.00,,,0.00,0,weatherlink.com 1.10,2013-02-12 11:28:00,
2013-02-12 06:43:00,36.4,30.0,29.73,WNW,297,2.0,7.0,76,0.00,,,0.00,5,weatherlink.com 1.10,2013-02-12 11:43:00,
2013-02-12 06:58:00,36.6,30.0,29.73,WNW,284,4.0,7.0,76,0.00,,,0.00,21,weatherlink.com 1.10,2013-02-12 11:58:00,
2013-02-12 07:13:00,37.3,30.0,29.74,West,260,5.0,7.0,74,0.00,,,0.00,44,weatherlink.com 1.10,2013-02-12 12:13:00,
2013-02-12 07:28:00,38.0,30.0,29.74,WSW,253,3.0,5.0,73,0.00,,,0.00,35,weatherlink.com 1.10,2013-02-12 12:28:00,
2013-02-12 07:43:00,38.1,30.0,29.75,West,267,3.0,6.0,73,0.00,,,0.00,46,weatherlink.com 1.10,2013-02-12 12:43:00,
2013-02-12 07:58:00,38.5,30.0,29.75,West,262,3.0,8.0,72,0.00,,,0.00,79,weatherlink.com 1.10,2013-02-12 12:58:00,
2013-02-12 08:13:00,38.8,30.0,29.75,West,277,4.0,8.0,71,0.00,,,0.00,90,weatherlink.com 1.10,2013-02-12 13:13:00,
2013-02-12 08:28:00,39.0,30.0,29.75,West,267,6.0,11.0,70,0.00,,,0.00,65,weatherlink.com 1.10,2013-02-12 13:28:00,
2013-02-12 08:43:00,40.0,30.0,29.75,West,259,5.0,9.0,68,0.00,,,0.00,313,weatherlink.com 1.10,2013-02-12 13:43:00,
2013-02-12 08:59:00,40.6,30.0,29.75,West,272,7.0,13.0,66,0.00,,,0.00,352,weatherlink.com 1.10,2013-02-12 13:59:00,
2013-02-12 09:14:00,41.3,30.0,29.75,West,271,3.0,15.0,65,0.00,,,0.00,417,weatherlink.com 1.10,2013-02-12 14:14:00,
2013-02-12 09:29:00,41.9,30.0,29.76,West,273,9.0,19.0,62,0.00,,,0.00,234,weatherlink.com 1.10,2013-02-12 14:29:00,
2013-02-12 09:44:00,42.2,29.0,29.76,West,281,8.0,22.0,59,0.00,,,0.00,466,weatherlink.com 1.10,2013-02-12 14:44:00,
2013-02-12 09:59:00,42.6,29.0,29.75,West,278,13.0,22.0,59,0.00,,,0.00,517,weatherlink.com 1.10,2013-02-12 14:59:00,
2013-02-12 10:14:00,43.3,29.0,29.75,WNW,302,6.0,16.0,58,0.00,,,0.00,186,weatherlink.com 1.10,2013-02-12 15:14:00,
2013-02-12 10:29:00,43.3,29.0,29.76,WNW,297,15.0,19.0,57,0.00,,,0.00,243,weatherlink.com 1.10,2013-02-12 15:29:00,
2013-02-12 10:44:00,43.3,27.0,29.76,NW,306,12.0,20.0,54,0.00,,,0.00,258,weatherlink.com 1.10,2013-02-12 15:44:00,
2013-02-12 10:59:00,43.3,28.0,29.76,NNW,332,10.0,18.0,55,0.00,,,0.00,306,weatherlink.com 1.10,2013-02-12 15:59:00,
2013-02-12 11:14:00,43.4,28.0,29.76,West,276,10.0,18.0,54,0.00,,,0.00,306,weatherlink.com 1.10,2013-02-12 16:14:00,
2013-02-12 11:29:00,43.7,27.0,29.76,NW,321,11.0,23.0,53,0.00,,,0.00,220,weatherlink.com 1.10,2013-02-12 16:29:00,
2013-02-12 11:44:00,43.8,27.0,29.76,WNW,285,19.0,21.0,53,0.00,,,0.00,244,weatherlink.com 1.10,2013-02-12 16:44:00,
2013-02-12 11:59:00,43.4,28.0,29.76,West,269,9.0,24.0,54,0.00,,,0.00,302,weatherlink.com 1.10,2013-02-12 16:59:00,
2013-02-12 12:14:00,44.3,27.0,29.77,WNW,298,15.0,19.0,52,0.00,,,0.00,861,weatherlink.com 1.10,2013-02-12 17:14:00,
2013-02-12 12:29:00,44.1,28.0,29.76,NW,318,14.0,24.0,53,0.00,,,0.00,707,weatherlink.com 1.10,2013-02-12 17:29:00,
2013-02-12 12:44:00,43.8,28.0,29.77,NW,315,16.0,26.0,54,0.00,,,0.00,309,weatherlink.com 1.10,2013-02-12 17:44:00,
2013-02-12 12:59:00,43.9,28.0,29.77,NW,308,15.0,20.0,54,0.00,,,0.00,306,weatherlink.com 1.10,2013-02-12 17:59:00,
2013-02-12 13:14:00,44.2,28.0,29.77,WNW,295,4.0,18.0,54,0.00,,,0.00,278,weatherlink.com 1.10,2013-02-12 18:14:00,
2013-02-12 13:29:00,44.2,28.0,29.77,WNW,290,8.0,23.0,54,0.00,,,0.00,253,weatherlink.com 1.10,2013-02-12 18:29:00,
2013-02-12 13:44:00,44.7,28.0,29.78,NW,315,16.0,24.0,53,0.00,,,0.00,229,weatherlink.com 1.10,2013-02-12 18:44:00,
2013-02-12 13:59:00,44.2,29.0,29.78,NW,306,12.0,21.0,55,0.00,,,0.00,487,weatherlink.com 1.10,2013-02-12 18:59:00,
2013-02-12 14:14:00,44.9,29.0,29.78,WNW,292,7.0,19.0,54,0.00,,,0.00,501,weatherlink.com 1.10,2013-02-12 19:14:00,
2013-02-12 14:29:00,45.0,30.0,29.79,WNW,296,6.0,19.0,55,0.00,,,0.00,239,weatherlink.com 1.10,2013-02-12 19:29:00,
2013-02-12 14:44:00,44.2,29.0,29.79,West,270,6.0,17.0,56,0.00,,,0.00,248,weatherlink.com 1.10,2013-02-12 19:44:00,
2013-02-12 14:59:00,43.4,29.0,29.80,WNW,295,10.0,25.0,58,0.00,,,0.00,105,weatherlink.com 1.10,2013-02-12 19:59:00,
2013-02-12 15:14:00,42.8,29.0,29.81,WNW,302,10.0,20.0,59,0.00,,,0.00,40,weatherlink.com 1.10,2013-02-12 20:14:00,
2013-02-12 15:29:00,42.4,29.0,29.81,West,273,6.0,18.0,60,0.00,,,0.00,37,weatherlink.com 1.10,2013-02-12 20:29:00,
2013-02-12 15:44:00,42.2,29.0,29.81,West,278,9.0,17.0,61,0.00,,,0.00,42,weatherlink.com 1.10,2013-02-12 20:44:00,
2013-02-12 15:59:00,42.0,29.0,29.81,SW,228,8.0,16.0,61,0.00,,,0.00,30,weatherlink.com 1.10,2013-02-12 20:59:00,
2013-02-12 16:14:00,41.8,29.0,29.81,WSW,243,4.0,16.0,62,0.00,,,0.00,30,weatherlink.com 1.10,2013-02-12 21:14:00,
2013-02-12 16:29:00,41.8,29.0,29.81,WNW,294,15.0,16.0,62,0.00,,,0.00,18,weatherlink.com 1.10,2013-02-12 21:29:00,
2013-02-12 16:44:00,41.7,29.0,29.81,West,269,4.0,11.0,62,0.00,,,0.00,12,weatherlink.com 1.10,2013-02-12 21:44:00,
2013-02-12 16:59:00,41.7,29.0,29.82,WNW,296,5.0,14.0,62,0.00,,,0.00,7,weatherlink.com 1.10,2013-02-12 21:59:00,
2013-02-12 17:14:00,41.6,29.0,29.81,WSW,257,4.0,13.0,62,0.00,,,0.00,0,weatherlink.com 1.10,2013-02-12 22:14:00,
2013-02-12 17:29:00,41.5,29.0,29.82,WNW,296,4.0,14.0,62,0.00,,,0.00,0,weatherlink.com 1.10,2013-02-12 22:29:00,
2013-02-12 17:44:00,41.0,29.0,29.81,WNW,288,9.0,11.0,63,0.00,,,0.00,0,weatherlink.com 1.10,2013-02-12 22:44:00,
2013-02-12 17:59:00,40.6,29.0,29.82,West,268,5.0,14.0,64,0.00,,,0.00,0,weatherlink.com 1.10,2013-02-12 22:59:00,
2013-02-12 18:14:00,40.2,29.0,29.82,WSW,242,2.0,12.0,65,0.00,,,0.00,0,weatherlink.com 1.10,2013-02-12 23:14:00,
2013-02-12 18:29:00,39.9,29.0,29.83,WSW,239,3.0,13.0,66,0.00,,,0.00,0,weatherlink.com 1.10,2013-02-12 23:29:00,
2013-02-12 18:44:00,39.8,29.0,29.84,WSW,255,5.0,11.0,66,0.00,,,0.00,0,weatherlink.com 1.10,2013-02-12 23:44:00,
2013-02-12 18:59:00,39.5,29.0,29.85,West,262,6.0,10.0,67,0.00,,,0.00,0,weatherlink.com 1.10,2013-02-12 23:59:00,
2013-02-12 19:15:00,39.5,30.0,29.87,WSW,239,4.0,13.0,68,0.00,,,0.00,0,weatherlink.com 1.10,2013-02-13 00:15:00,
2013-02-12 19:30:00,39.6,29.0,29.88,WSW,249,6.0,13.0,67,0.00,,,0.00,0,weatherlink.com 1.10,2013-02-13 00:30:00,
2013-02-12 19:45:00,39.6,29.0,29.90,West,262,5.0,15.0,67,0.00,,,0.00,0,weatherlink.com 1.10,2013-02-13 00:45:00,
2013-02-12 20:00:00,39.7,29.0,29.91,WNW,286,5.0,15.0,66,0.00,,,0.00,0,weatherlink.com 1.10,2013-02-13 01:00:00,
2013-02-12 20:15:00,39.6,29.0,29.93,West,278,5.0,15.0,66,0.00,,,0.00,0,weatherlink.com 1.10,2013-02-13 01:15:00,
2013-02-12 20:30:00,39.6,29.0,29.94,WSW,254,8.0,12.0,66,0.00,,,0.00,0,weatherlink.com 1.10,2013-02-13 01:30:00,
2013-02-12 20:45:00,39.4,29.0,29.93,WSW,245,5.0,11.0,67,0.00,,,0.00,0,weatherlink.com 1.10,2013-02-13 01:45:00,
2013-02-12 21:00:00,39.2,29.0,29.94,West,266,3.0,15.0,67,0.00,,,0.00,0,weatherlink.com 1.10,2013-02-13 02:00:00,
2013-02-12 21:15:00,39.1,29.0,29.93,WSW,254,6.0,13.0,66,0.00,,,0.00,0,weatherlink.com 1.10,2013-02-13 02:15:00,
2013-02-12 21:30:00,38.9,28.0,29.92,WNW,296,4.0,13.0,66,0.00,,,0.00,0,weatherlink.com 1.10,2013-02-13 02:30:00,
2013-02-12 21:45:00,38.5,28.0,29.91,West,278,2.0,8.0,67,0.00,,,0.00,0,weatherlink.com 1.10,2013-02-13 02:45:00,
2013-02-12 22:00:00,38.2,28.0,29.91,WNW,283,3.0,8.0,68,0.00,,,0.00,0,weatherlink.com 1.10,2013-02-13 03:00:00,
2013-02-12 22:15:00,37.8,28.0,29.91,West,265,4.0,8.0,68,0.00,,,0.00,0,weatherlink.com 1.10,2013-02-13 03:15:00,
2013-02-12 22:30:00,37.3,28.0,29.90,West,267,2.0,5.0,70,0.00,,,0.00,0,weatherlink.com 1.10,2013-02-13 03:30:00,
2013-02-12 22:45:00,37.0,28.0,29.90,West,275,4.0,6.0,70,0.00,,,0.00,0,weatherlink.com 1.10,2013-02-13 03:45:00,
2013-02-12 23:00:00,36.6,28.0,29.89,West,281,1.0,2.0,71,0.00,,,0.00,0,weatherlink.com 1.10,2013-02-13 04:00:00,
2013-02-12 23:15:00,36.2,28.0,29.89,WNW,290,2.0,5.0,71,0.00,,,0.00,0,weatherlink.com 1.10,2013-02-13 04:15:00,
2013-02-12 23:30:00,35.9,28.0,29.90,West,267,4.0,5.0,72,0.00,,,0.00,0,weatherlink.com 1.10,2013-02-13 04:30:00,
2013-02-12 23:45:00,35.6,28.0,29.90,West,281,2.0,5.0,73,0.00,,,0.00,0,weatherlink.com 1.10,2013-02-13 04:45:00,